This is the latest recevied weather packets stored in our database for station/object PP5FMM-13. If no packets are shown the sender has not sent any weather packets the latest 10 day(s).
| Time | Temp. | Humidity | Pressure | Rain* | Wind** | Luminosity | Snow |
|---|---|---|---|---|---|---|---|
| 1778006134 | 30° C | 83% | 1016.8 hPa | - | - | - | - |
| 1778005834 | 30° C | 83% | 1016.8 hPa | - | - | - | - |
| 1778005534 | 30° C | 83% | 1016.8 hPa | - | - | - | - |
| 1778005234 | 30° C | 83% | 1016.7 hPa | - | - | - | - |
| 1778004934 | 30° C | 83% | 1016.7 hPa | - | - | - | - |
| 1778004634 | 30° C | 83% | 1016.7 hPa | - | - | - | - |
| 1778004334 | 30° C | 81% | 1016.6 hPa | - | - | - | - |
| 1778004034 | 30° C | 81% | 1016.6 hPa | - | - | - | - |
| 1778003734 | 30° C | 83% | 1016.6 hPa | - | - | - | - |
| 1778003434 | 29.44° C | 84% | 1016.5 hPa | - | - | - | - |
| 1778003134 | 29.44° C | 85% | 1016.5 hPa | - | - | - | - |
| 1778002834 | 30° C | 82% | 1016.6 hPa | - | - | - | - |
| 1778002534 | 28.89° C | 85% | 1016.6 hPa | - | - | - | - |
| 1778002234 | 29.44° C | 85% | 1016.6 hPa | - | - | - | - |
| 1778001934 | 29.44° C | 84% | 1016.7 hPa | - | - | - | - |
| 1778001634 | 28.89° C | 84% | 1016.8 hPa | - | - | - | - |
| 1778001334 | 28.89° C | 86% | 1016.9 hPa | - | - | - | - |
| 1778001034 | 28.89° C | 85% | 1016.9 hPa | - | - | - | - |
| 1778000734 | 28.89° C | 86% | 1017 hPa | - | - | - | - |
| 1778000434 | 28.89° C | 84% | 1017.1 hPa | - | - | - | - |
| 1778000134 | 28.89° C | 83% | 1017.2 hPa | - | - | - | - |
| 1777999834 | 29.44° C | 79% | 1017.2 hPa | - | - | - | - |
| 1777999534 | 28.89° C | 79% | 1017.3 hPa | - | - | - | - |
| 1777999234 | 28.89° C | 79% | 1017.4 hPa | - | - | - | - |
| 1777998934 | 28.89° C | 79% | 1017.5 hPa | - | - | - | - |
* Rain since midnight (hover to see other rain measurements)
** Current wind speed in m/s (hover to see current wind gust speed)